sensor_id;sensor_type;location;lat;lon;timestamp;P1;durP1;ratioP1;P2;durP2;ratioP2
63818;SDS011;49970;54.976;73.248;2023-02-15T00:01:59;91.18;;;32.00;;
63818;SDS011;49970;54.976;73.248;2023-02-15T00:04:30;82.38;;;35.85;;
63818;SDS011;49970;54.976;73.248;2023-02-15T00:07:17;72.18;;;31.25;;
63818;SDS011;49970;54.976;73.248;2023-02-15T00:09:54;72.18;;;33.50;;
63818;SDS011;49970;54.976;73.248;2023-02-15T00:12:20;76.55;;;31.33;;
63818;SDS011;49970;54.976;73.248;2023-02-15T00:14:57;70.45;;;31.80;;
63818;SDS011;49970;54.976;73.248;2023-02-15T00:17:28;89.43;;;33.80;;
63818;SDS011;49970;54.976;73.248;2023-02-15T00:19:57;101.43;;;35.45;;
63818;SDS011;49970;54.976;73.248;2023-02-15T00:22:34;96.50;;;37.72;;
63818;SDS011;49970;54.976;73.248;2023-02-15T00:25:05;87.10;;;35.55;;
63818;SDS011;49970;54.976;73.248;2023-02-15T00:27:32;93.97;;;36.30;;
63818;SDS011;49970;54.976;73.248;2023-02-15T00:30:03;102.88;;;39.05;;
63818;SDS011;49970;54.976;73.248;2023-02-15T00:32:29;107.82;;;42.47;;
63818;SDS011;49970;54.976;73.248;2023-02-15T00:34:56;108.55;;;38.00;;
63818;SDS011;49970;54.976;73.248;2023-02-15T00:37:23;107.43;;;41.35;;
63818;SDS011;49970;54.976;73.248;2023-02-15T00:39:49;117.47;;;39.70;;
63818;SDS011;49970;54.976;73.248;2023-02-15T00:42:16;114.45;;;41.85;;
63818;SDS011;49970;54.976;73.248;2023-02-15T00:44:42;106.13;;;39.75;;
63818;SDS011;49970;54.976;73.248;2023-02-15T00:47:08;107.13;;;43.72;;
63818;SDS011;49970;54.976;73.248;2023-02-15T00:49:35;109.85;;;42.60;;
63818;SDS011;49970;54.976;73.248;2023-02-15T00:52:01;116.72;;;45.33;;
63818;SDS011;49970;54.976;73.248;2023-02-15T00:54:27;118.53;;;44.60;;
63818;SDS011;49970;54.976;73.248;2023-02-15T00:56:53;118.32;;;43.28;;
63818;SDS011;49970;54.976;73.248;2023-02-15T00:59:19;108.85;;;44.17;;
63818;SDS011;49970;54.976;73.248;2023-02-15T01:01:48;121.20;;;46.60;;
63818;SDS011;49970;54.976;73.248;2023-02-15T01:04:24;126.03;;;45.20;;
63818;SDS011;49970;54.976;73.248;2023-02-15T01:06:50;115.03;;;42.15;;
63818;SDS011;49970;54.976;73.248;2023-02-15T01:09:16;118.57;;;46.20;;
63818;SDS011;49970;54.976;73.248;2023-02-15T01:11:43;110.38;;;44.92;;
63818;SDS011;49970;54.976;73.248;2023-02-15T01:14:09;132.70;;;47.53;;
63818;SDS011;49970;54.976;73.248;2023-02-15T01:16:41;112.10;;;44.90;;
63818;SDS011;49970;54.976;73.248;2023-02-15T01:19:12;108.00;;;43.83;;
63818;SDS011;49970;54.976;73.248;2023-02-15T01:21:38;111.40;;;47.42;;
63818;SDS011;49970;54.976;73.248;2023-02-15T01:24:10;119.38;;;47.33;;
63818;SDS011;49970;54.976;73.248;2023-02-15T01:26:38;129.82;;;47.38;;
63818;SDS011;49970;54.976;73.248;2023-02-15T01:29:08;126.45;;;50.97;;
63818;SDS011;49970;54.976;73.248;2023-02-15T01:31:44;133.70;;;49.63;;
63818;SDS011;49970;54.976;73.248;2023-02-15T01:34:13;126.75;;;51.65;;
63818;SDS011;49970;54.976;73.248;2023-02-15T01:36:39;139.75;;;55.80;;
63818;SDS011;49970;54.976;73.248;2023-02-15T01:39:06;136.38;;;56.05;;
63818;SDS011;49970;54.976;73.248;2023-02-15T01:41:43;133.77;;;55.63;;
63818;SDS011;49970;54.976;73.248;2023-02-15T01:47:22;125.70;;;50.38;;
63818;SDS011;49970;54.976;73.248;2023-02-15T01:52:40;135.48;;;50.92;;
63818;SDS011;49970;54.976;73.248;2023-02-15T01:55:13;128.07;;;48.13;;
63818;SDS011;49970;54.976;73.248;2023-02-15T01:57:41;139.65;;;48.50;;
63818;SDS011;49970;54.976;73.248;2023-02-15T02:00:09;121.13;;;47.58;;
63818;SDS011;49970;54.976;73.248;2023-02-15T02:02:39;131.85;;;49.03;;
63818;SDS011;49970;54.976;73.248;2023-02-15T02:05:07;116.57;;;47.72;;
63818;SDS011;49970;54.976;73.248;2023-02-15T02:07:39;113.88;;;47.40;;
63818;SDS011;49970;54.976;73.248;2023-02-15T02:10:15;126.32;;;44.20;;
63818;SDS011;49970;54.976;73.248;2023-02-15T02:13:01;115.82;;;43.17;;
63818;SDS011;49970;54.976;73.248;2023-02-15T02:15:43;114.35;;;42.50;;
63818;SDS011;49970;54.976;73.248;2023-02-15T02:18:41;105.95;;;41.20;;
63818;SDS011;49970;54.976;73.248;2023-02-15T02:21:38;108.32;;;44.80;;
63818;SDS011;49970;54.976;73.248;2023-02-15T02:33:42;107.15;;;39.20;;
63818;SDS011;49970;54.976;73.248;2023-02-15T02:46:53;97.05;;;40.80;;
63818;SDS011;49970;54.976;73.248;2023-02-15T02:49:38;95.95;;;37.90;;
63818;SDS011;49970;54.976;73.248;2023-02-15T02:52:38;110.93;;;38.33;;
63818;SDS011;49970;54.976;73.248;2023-02-15T02:55:23;87.93;;;36.35;;
63818;SDS011;49970;54.976;73.248;2023-02-15T03:00:40;116.18;;;39.63;;
63818;SDS011;49970;54.976;73.248;2023-02-15T03:03:30;105.95;;;40.22;;
63818;SDS011;49970;54.976;73.248;2023-02-15T03:06:03;102.93;;;42.90;;
63818;SDS011;49970;54.976;73.248;2023-02-15T03:08:42;114.07;;;43.25;;
63818;SDS011;49970;54.976;73.248;2023-02-15T03:11:18;104.32;;;41.80;;
63818;SDS011;49970;54.976;73.248;2023-02-15T03:13:54;112.40;;;45.50;;
63818;SDS011;49970;54.976;73.248;2023-02-15T03:16:20;105.70;;;47.03;;
63818;SDS011;49970;54.976;73.248;2023-02-15T03:19:37;97.00;;;43.13;;
63818;SDS011;49970;54.976;73.248;2023-02-15T03:22:20;120.15;;;42.85;;
63818;SDS011;49970;54.976;73.248;2023-02-15T03:25:09;106.28;;;47.53;;
63818;SDS011;49970;54.976;73.248;2023-02-15T03:27:38;71.97;;;36.72;;
63818;SDS011;49970;54.976;73.248;2023-02-15T03:30:24;132.63;;;45.00;;
63818;SDS011;49970;54.976;73.248;2023-02-15T03:32:53;116.97;;;43.55;;
63818;SDS011;49970;54.976;73.248;2023-02-15T03:35:23;108.60;;;43.17;;
63818;SDS011;49970;54.976;73.248;2023-02-15T03:37:57;118.18;;;45.05;;
63818;SDS011;49970;54.976;73.248;2023-02-15T03:40:43;121.95;;;43.38;;
63818;SDS011;49970;54.976;73.248;2023-02-15T03:43:37;100.97;;;45.53;;
63818;SDS011;49970;54.976;73.248;2023-02-15T03:48:50;111.57;;;47.72;;
63818;SDS011;49970;54.976;73.248;2023-02-15T03:51:21;126.47;;;48.33;;
63818;SDS011;49970;54.976;73.248;2023-02-15T03:54:11;126.07;;;49.17;;
63818;SDS011;49970;54.976;73.248;2023-02-15T04:00:09;117.22;;;47.42;;
63818;SDS011;49970;54.976;73.248;2023-02-15T04:05:36;130.77;;;52.67;;
63818;SDS011;49970;54.976;73.248;2023-02-15T04:08:03;129.63;;;53.22;;
63818;SDS011;49970;54.976;73.248;2023-02-15T04:10:39;129.80;;;53.90;;
63818;SDS011;49970;54.976;73.248;2023-02-15T04:13:32;133.80;;;47.38;;
63818;SDS011;49970;54.976;73.248;2023-02-15T04:16:01;123.55;;;48.35;;
63818;SDS011;49970;54.976;73.248;2023-02-15T04:18:40;134.30;;;51.75;;
63818;SDS011;49970;54.976;73.248;2023-02-15T04:21:27;141.30;;;57.15;;
63818;SDS011;49970;54.976;73.248;2023-02-15T04:24:13;134.77;;;51.47;;
63818;SDS011;49970;54.976;73.248;2023-02-15T04:27:08;126.38;;;50.05;;
63818;SDS011;49970;54.976;73.248;2023-02-15T04:29:40;147.00;;;56.33;;
63818;SDS011;49970;54.976;73.248;2023-02-15T04:32:16;164.48;;;57.72;;
63818;SDS011;49970;54.976;73.248;2023-02-15T04:34:53;177.73;;;64.85;;
63818;SDS011;49970;54.976;73.248;2023-02-15T04:37:29;192.82;;;69.28;;
63818;SDS011;49970;54.976;73.248;2023-02-15T04:39:55;165.07;;;57.92;;
63818;SDS011;49970;54.976;73.248;2023-02-15T04:42:24;143.10;;;56.20;;
63818;SDS011;49970;54.976;73.248;2023-02-15T04:44:51;156.50;;;59.45;;
63818;SDS011;49970;54.976;73.248;2023-02-15T04:47:18;133.02;;;55.22;;
63818;SDS011;49970;54.976;73.248;2023-02-15T04:49:45;133.20;;;49.58;;
63818;SDS011;49970;54.976;73.248;2023-02-15T04:52:16;124.50;;;49.28;;
63818;SDS011;49970;54.976;73.248;2023-02-15T04:54:43;125.07;;;48.67;;
63818;SDS011;49970;54.976;73.248;2023-02-15T04:57:16;127.72;;;53.90;;
63818;SDS011;49970;54.976;73.248;2023-02-15T04:59:42;130.45;;;50.17;;
63818;SDS011;49970;54.976;73.248;2023-02-15T05:02:08;123.88;;;51.22;;
63818;SDS011;49970;54.976;73.248;2023-02-15T05:04:34;150.80;;;56.33;;
63818;SDS011;49970;54.976;73.248;2023-02-15T05:07:01;141.23;;;52.08;;
63818;SDS011;49970;54.976;73.248;2023-02-15T05:09:27;122.03;;;50.50;;
63818;SDS011;49970;54.976;73.248;2023-02-15T05:11:58;128.23;;;49.33;;
63818;SDS011;49970;54.976;73.248;2023-02-15T05:14:25;140.60;;;56.50;;
63818;SDS011;49970;54.976;73.248;2023-02-15T05:16:51;138.27;;;55.25;;
63818;SDS011;49970;54.976;73.248;2023-02-15T05:19:19;134.30;;;58.38;;
63818;SDS011;49970;54.976;73.248;2023-02-15T05:21:48;148.73;;;56.53;;
63818;SDS011;49970;54.976;73.248;2023-02-15T05:24:14;142.70;;;56.00;;
63818;SDS011;49970;54.976;73.248;2023-02-15T05:26:59;149.60;;;59.70;;
63818;SDS011;49970;54.976;73.248;2023-02-15T05:29:48;139.02;;;56.08;;
63818;SDS011;49970;54.976;73.248;2023-02-15T05:32:15;151.95;;;61.17;;
63818;SDS011;49970;54.976;73.248;2023-02-15T05:34:41;161.13;;;60.70;;
63818;SDS011;49970;54.976;73.248;2023-02-15T05:37:07;147.70;;;55.92;;
63818;SDS011;49970;54.976;73.248;2023-02-15T05:39:34;147.98;;;56.03;;
63818;SDS011;49970;54.976;73.248;2023-02-15T05:42:00;128.77;;;51.63;;
63818;SDS011;49970;54.976;73.248;2023-02-15T05:44:26;133.07;;;48.50;;
63818;SDS011;49970;54.976;73.248;2023-02-15T05:46:52;125.22;;;48.08;;
63818;SDS011;49970;54.976;73.248;2023-02-15T05:49:18;131.88;;;51.78;;
63818;SDS011;49970;54.976;73.248;2023-02-15T05:51:55;135.77;;;50.90;;
63818;SDS011;49970;54.976;73.248;2023-02-15T05:54:21;141.35;;;49.20;;
63818;SDS011;49970;54.976;73.248;2023-02-15T05:56:47;128.25;;;47.17;;
63818;SDS011;49970;54.976;73.248;2023-02-15T05:59:13;135.02;;;52.65;;
63818;SDS011;49970;54.976;73.248;2023-02-15T06:01:40;159.43;;;51.75;;
63818;SDS011;49970;54.976;73.248;2023-02-15T06:04:06;140.38;;;52.65;;
63818;SDS011;49970;54.976;73.248;2023-02-15T06:06:32;160.38;;;50.95;;
63818;SDS011;49970;54.976;73.248;2023-02-15T06:09:11;134.50;;;52.33;;
63818;SDS011;49970;54.976;73.248;2023-02-15T06:11:39;148.85;;;55.35;;
63818;SDS011;49970;54.976;73.248;2023-02-15T06:14:05;157.35;;;52.78;;
63818;SDS011;49970;54.976;73.248;2023-02-15T06:16:37;144.65;;;51.85;;
63818;SDS011;49970;54.976;73.248;2023-02-15T06:19:13;144.73;;;51.97;;
63818;SDS011;49970;54.976;73.248;2023-02-15T06:27:17;160.05;;;56.40;;
63818;SDS011;49970;54.976;73.248;2023-02-15T06:31:09;162.55;;;55.47;;
63818;SDS011;49970;54.976;73.248;2023-02-15T06:35:00;148.20;;;51.10;;
63818;SDS011;49970;54.976;73.248;2023-02-15T06:37:26;146.43;;;53.25;;
63818;SDS011;49970;54.976;73.248;2023-02-15T06:39:52;129.27;;;51.47;;
63818;SDS011;49970;54.976;73.248;2023-02-15T06:42:19;186.10;;;54.42;;
63818;SDS011;49970;54.976;73.248;2023-02-15T06:44:50;168.70;;;56.47;;
63818;SDS011;49970;54.976;73.248;2023-02-15T06:47:17;169.95;;;59.70;;
63818;SDS011;49970;54.976;73.248;2023-02-15T06:49:53;187.95;;;63.33;;
63818;SDS011;49970;54.976;73.248;2023-02-15T06:52:20;150.75;;;55.13;;
63818;SDS011;49970;54.976;73.248;2023-02-15T06:54:56;143.60;;;53.78;;
63818;SDS011;49970;54.976;73.248;2023-02-15T06:57:32;168.10;;;55.83;;
63818;SDS011;49970;54.976;73.248;2023-02-15T06:59:59;163.45;;;58.85;;
63818;SDS011;49970;54.976;73.248;2023-02-15T07:02:25;149.90;;;53.60;;
63818;SDS011;49970;54.976;73.248;2023-02-15T07:04:51;153.27;;;55.00;;
63818;SDS011;49970;54.976;73.248;2023-02-15T07:07:18;153.32;;;54.85;;
63818;SDS011;49970;54.976;73.248;2023-02-15T07:09:49;137.45;;;53.67;;
63818;SDS011;49970;54.976;73.248;2023-02-15T07:12:25;142.20;;;57.05;;
63818;SDS011;49970;54.976;73.248;2023-02-15T07:15:14;133.40;;;52.13;;
63818;SDS011;49970;54.976;73.248;2023-02-15T07:17:51;152.57;;;53.78;;
63818;SDS011;49970;54.976;73.248;2023-02-15T07:20:19;156.55;;;54.95;;
63818;SDS011;49970;54.976;73.248;2023-02-15T07:22:47;143.07;;;56.72;;
63818;SDS011;49970;54.976;73.248;2023-02-15T07:25:18;134.05;;;48.88;;
63818;SDS011;49970;54.976;73.248;2023-02-15T07:27:44;152.25;;;51.97;;
63818;SDS011;49970;54.976;73.248;2023-02-15T07:30:12;144.90;;;53.58;;
63818;SDS011;49970;54.976;73.248;2023-02-15T07:32:40;136.15;;;51.83;;
63818;SDS011;49970;54.976;73.248;2023-02-15T07:35:32;147.57;;;49.97;;
63818;SDS011;49970;54.976;73.248;2023-02-15T07:38:01;148.27;;;47.97;;
63818;SDS011;49970;54.976;73.248;2023-02-15T07:40:28;142.88;;;45.58;;
63818;SDS011;49970;54.976;73.248;2023-02-15T07:42:57;131.90;;;45.67;;
63818;SDS011;49970;54.976;73.248;2023-02-15T07:45:24;134.80;;;46.83;;
63818;SDS011;49970;54.976;73.248;2023-02-15T07:47:50;131.15;;;44.00;;
63818;SDS011;49970;54.976;73.248;2023-02-15T07:50:22;111.05;;;40.88;;
63818;SDS011;49970;54.976;73.248;2023-02-15T07:52:48;135.90;;;42.05;;
63818;SDS011;49970;54.976;73.248;2023-02-15T07:55:14;120.47;;;41.80;;
63818;SDS011;49970;54.976;73.248;2023-02-15T07:57:44;111.35;;;40.40;;
63818;SDS011;49970;54.976;73.248;2023-02-15T08:00:17;109.40;;;40.45;;
63818;SDS011;49970;54.976;73.248;2023-02-15T08:02:51;123.35;;;38.00;;
63818;SDS011;49970;54.976;73.248;2023-02-15T08:05:43;143.13;;;42.53;;
63818;SDS011;49970;54.976;73.248;2023-02-15T08:08:11;135.23;;;44.75;;
63818;SDS011;49970;54.976;73.248;2023-02-15T08:11:00;111.47;;;37.08;;
63818;SDS011;49970;54.976;73.248;2023-02-15T08:13:47;121.30;;;39.55;;
63818;SDS011;49970;54.976;73.248;2023-02-15T08:16:43;103.45;;;37.97;;
63818;SDS011;49970;54.976;73.248;2023-02-15T08:19:19;110.03;;;36.72;;
63818;SDS011;49970;54.976;73.248;2023-02-15T08:24:31;100.47;;;35.45;;
63818;SDS011;49970;54.976;73.248;2023-02-15T08:26:58;96.82;;;36.05;;
63818;SDS011;49970;54.976;73.248;2023-02-15T08:29:26;109.50;;;37.72;;
63818;SDS011;49970;54.976;73.248;2023-02-15T08:31:54;102.75;;;37.63;;
63818;SDS011;49970;54.976;73.248;2023-02-15T08:34:24;97.28;;;36.40;;
63818;SDS011;49970;54.976;73.248;2023-02-15T08:36:50;102.85;;;33.97;;
63818;SDS011;49970;54.976;73.248;2023-02-15T08:39:17;99.25;;;35.72;;
63818;SDS011;49970;54.976;73.248;2023-02-15T08:41:44;101.50;;;34.45;;
63818;SDS011;49970;54.976;73.248;2023-02-15T08:44:11;100.63;;;35.33;;
63818;SDS011;49970;54.976;73.248;2023-02-15T08:46:39;91.57;;;37.05;;
63818;SDS011;49970;54.976;73.248;2023-02-15T08:49:12;92.88;;;31.38;;
63818;SDS011;49970;54.976;73.248;2023-02-15T08:51:41;92.05;;;34.25;;
63818;SDS011;49970;54.976;73.248;2023-02-15T08:54:08;87.07;;;33.63;;
63818;SDS011;49970;54.976;73.248;2023-02-15T08:56:37;79.93;;;33.75;;
63818;SDS011;49970;54.976;73.248;2023-02-15T08:59:14;85.97;;;30.13;;
63818;SDS011;49970;54.976;73.248;2023-02-15T09:01:46;82.68;;;32.25;;
63818;SDS011;49970;54.976;73.248;2023-02-15T09:04:19;87.03;;;34.72;;
63818;SDS011;49970;54.976;73.248;2023-02-15T09:06:47;99.97;;;34.65;;
63818;SDS011;49970;54.976;73.248;2023-02-15T09:09:17;94.60;;;34.03;;
63818;SDS011;49970;54.976;73.248;2023-02-15T09:11:46;97.43;;;33.75;;
63818;SDS011;49970;54.976;73.248;2023-02-15T09:14:15;78.78;;;33.42;;
63818;SDS011;49970;54.976;73.248;2023-02-15T09:16:51;98.43;;;37.58;;
63818;SDS011;49970;54.976;73.248;2023-02-15T09:19:19;92.07;;;34.95;;
63818;SDS011;49970;54.976;73.248;2023-02-15T09:21:55;72.93;;;33.58;;
63818;SDS011;49970;54.976;73.248;2023-02-15T09:24:22;81.68;;;35.33;;
63818;SDS011;49970;54.976;73.248;2023-02-15T09:26:49;97.90;;;35.20;;
63818;SDS011;49970;54.976;73.248;2023-02-15T09:29:15;93.85;;;33.33;;
63818;SDS011;49970;54.976;73.248;2023-02-15T09:31:43;82.10;;;34.88;;
63818;SDS011;49970;54.976;73.248;2023-02-15T09:34:15;97.72;;;34.53;;
63818;SDS011;49970;54.976;73.248;2023-02-15T09:50:55;89.18;;;34.65;;
63818;SDS011;49970;54.976;73.248;2023-02-15T09:56:33;68.88;;;32.70;;
63818;SDS011;49970;54.976;73.248;2023-02-15T10:05:40;73.25;;;32.20;;
63818;SDS011;49970;54.976;73.248;2023-02-15T10:11:06;71.15;;;33.17;;
63818;SDS011;49970;54.976;73.248;2023-02-15T10:19:59;87.55;;;33.35;;
63818;SDS011;49970;54.976;73.248;2023-02-15T10:22:57;85.22;;;33.67;;
63818;SDS011;49970;54.976;73.248;2023-02-15T10:29:03;58.63;;;30.08;;
63818;SDS011;49970;54.976;73.248;2023-02-15T10:31:48;68.15;;;28.90;;
63818;SDS011;49970;54.976;73.248;2023-02-15T10:34:19;64.65;;;30.33;;
63818;SDS011;49970;54.976;73.248;2023-02-15T10:56:03;65.43;;;28.70;;
63818;SDS011;49970;54.976;73.248;2023-02-15T11:01:26;70.78;;;30.35;;
63818;SDS011;49970;54.976;73.248;2023-02-15T11:06:49;92.38;;;39.33;;
63818;SDS011;49970;54.976;73.248;2023-02-15T11:09:23;91.70;;;39.65;;
63818;SDS011;49970;54.976;73.248;2023-02-15T11:11:55;120.63;;;46.17;;
63818;SDS011;49970;54.976;73.248;2023-02-15T11:14:39;118.63;;;51.40;;
63818;SDS011;49970;54.976;73.248;2023-02-15T11:17:40;136.43;;;50.63;;
63818;SDS011;49970;54.976;73.248;2023-02-15T11:20:28;134.68;;;53.95;;
63818;SDS011;49970;54.976;73.248;2023-02-15T11:23:12;115.85;;;47.03;;
63818;SDS011;49970;54.976;73.248;2023-02-15T11:25:43;113.53;;;47.63;;
63818;SDS011;49970;54.976;73.248;2023-02-15T11:28:17;102.95;;;47.28;;
63818;SDS011;49970;54.976;73.248;2023-02-15T11:30:49;122.53;;;46.53;;
63818;SDS011;49970;54.976;73.248;2023-02-15T11:33:24;111.68;;;41.55;;
63818;SDS011;49970;54.976;73.248;2023-02-15T11:36:00;110.95;;;41.33;;
63818;SDS011;49970;54.976;73.248;2023-02-15T11:38:35;90.57;;;39.53;;
63818;SDS011;49970;54.976;73.248;2023-02-15T11:41:10;108.00;;;42.75;;
63818;SDS011;49970;54.976;73.248;2023-02-15T11:44:12;93.55;;;36.72;;
63818;SDS011;49970;54.976;73.248;2023-02-15T11:46:42;90.88;;;36.08;;
63818;SDS011;49970;54.976;73.248;2023-02-15T11:52:00;91.57;;;37.22;;
63818;SDS011;49970;54.976;73.248;2023-02-15T11:54:33;94.53;;;35.58;;
63818;SDS011;49970;54.976;73.248;2023-02-15T11:59:49;100.20;;;38.30;;
63818;SDS011;49970;54.976;73.248;2023-02-15T12:02:36;85.07;;;36.47;;
63818;SDS011;49970;54.976;73.248;2023-02-15T12:05:16;104.05;;;41.13;;
63818;SDS011;49970;54.976;73.248;2023-02-15T12:07:46;102.47;;;41.85;;
63818;SDS011;49970;54.976;73.248;2023-02-15T12:13:12;117.13;;;40.55;;
63818;SDS011;49970;54.976;73.248;2023-02-15T12:15:52;113.00;;;40.33;;
63818;SDS011;49970;54.976;73.248;2023-02-15T12:18:42;89.68;;;39.80;;
63818;SDS011;49970;54.976;73.248;2023-02-15T12:22:34;91.40;;;38.05;;
63818;SDS011;49970;54.976;73.248;2023-02-15T12:26:05;100.15;;;38.60;;
63818;SDS011;49970;54.976;73.248;2023-02-15T12:28:40;108.35;;;42.83;;
63818;SDS011;49970;54.976;73.248;2023-02-15T12:31:18;118.95;;;44.40;;
63818;SDS011;49970;54.976;73.248;2023-02-15T12:34:29;100.68;;;42.03;;
63818;SDS011;49970;54.976;73.248;2023-02-15T12:37:02;93.97;;;39.63;;
63818;SDS011;49970;54.976;73.248;2023-02-15T12:39:55;105.70;;;42.00;;
63818;SDS011;49970;54.976;73.248;2023-02-15T12:42:25;98.00;;;40.65;;
63818;SDS011;49970;54.976;73.248;2023-02-15T12:44:56;101.57;;;42.95;;
63818;SDS011;49970;54.976;73.248;2023-02-15T12:47:27;80.32;;;37.50;;
63818;SDS011;49970;54.976;73.248;2023-02-15T12:50:06;90.47;;;38.13;;
63818;SDS011;49970;54.976;73.248;2023-02-15T12:52:49;106.80;;;42.20;;
63818;SDS011;49970;54.976;73.248;2023-02-15T12:55:21;92.97;;;40.63;;
63818;SDS011;49970;54.976;73.248;2023-02-15T12:57:58;106.50;;;42.65;;
63818;SDS011;49970;54.976;73.248;2023-02-15T13:01:35;99.38;;;42.78;;
63818;SDS011;49970;54.976;73.248;2023-02-15T13:04:00;118.30;;;43.88;;
63818;SDS011;49970;54.976;73.248;2023-02-15T13:06:33;107.78;;;47.25;;
63818;SDS011;49970;54.976;73.248;2023-02-15T13:09:20;106.13;;;43.85;;
63818;SDS011;49970;54.976;73.248;2023-02-15T13:12:28;110.18;;;45.33;;
63818;SDS011;49970;54.976;73.248;2023-02-15T13:14:57;105.72;;;42.88;;
63818;SDS011;49970;54.976;73.248;2023-02-15T13:17:30;112.70;;;45.33;;
63818;SDS011;49970;54.976;73.248;2023-02-15T13:20:32;106.72;;;45.97;;
63818;SDS011;49970;54.976;73.248;2023-02-15T13:23:05;112.00;;;43.33;;
63818;SDS011;49970;54.976;73.248;2023-02-15T13:25:44;116.90;;;48.85;;
63818;SDS011;49970;54.976;73.248;2023-02-15T13:28:22;127.38;;;48.92;;
63818;SDS011;49970;54.976;73.248;2023-02-15T13:30:57;104.10;;;45.45;;
63818;SDS011;49970;54.976;73.248;2023-02-15T13:33:31;125.22;;;48.95;;
63818;SDS011;49970;54.976;73.248;2023-02-15T13:36:48;93.80;;;41.92;;
63818;SDS011;49970;54.976;73.248;2023-02-15T13:52:51;122.65;;;47.60;;
63818;SDS011;49970;54.976;73.248;2023-02-15T13:55:28;106.50;;;44.40;;
63818;SDS011;49970;54.976;73.248;2023-02-15T14:03:43;115.65;;;46.13;;
63818;SDS011;49970;54.976;73.248;2023-02-15T14:12:06;114.50;;;44.33;;
63818;SDS011;49970;54.976;73.248;2023-02-15T14:20:45;106.00;;;44.40;;
63818;SDS011;49970;54.976;73.248;2023-02-15T14:26:40;106.90;;;42.42;;
63818;SDS011;49970;54.976;73.248;2023-02-15T14:32:07;98.00;;;39.60;;
63818;SDS011;49970;54.976;73.248;2023-02-15T14:35:05;88.28;;;36.10;;
63818;SDS011;49970;54.976;73.248;2023-02-15T14:41:04;75.45;;;34.78;;
63818;SDS011;49970;54.976;73.248;2023-02-15T14:56:41;100.00;;;40.05;;
63818;SDS011;49970;54.976;73.248;2023-02-15T14:59:19;94.38;;;38.90;;
63818;SDS011;49970;54.976;73.248;2023-02-15T15:01:55;96.90;;;39.47;;
63818;SDS011;49970;54.976;73.248;2023-02-15T15:04:31;83.18;;;36.42;;
63818;SDS011;49970;54.976;73.248;2023-02-15T15:07:19;104.47;;;38.55;;
63818;SDS011;49970;54.976;73.248;2023-02-15T15:12:45;102.35;;;41.38;;
63818;SDS011;49970;54.976;73.248;2023-02-15T15:18:06;99.25;;;37.95;;
63818;SDS011;49970;54.976;73.248;2023-02-15T15:25:51;125.80;;;45.85;;
63818;SDS011;49970;54.976;73.248;2023-02-15T15:31:39;123.13;;;46.78;;
63818;SDS011;49970;54.976;73.248;2023-02-15T15:37:04;108.30;;;46.38;;
63818;SDS011;49970;54.976;73.248;2023-02-15T15:45:27;125.10;;;47.80;;
63818;SDS011;49970;54.976;73.248;2023-02-15T15:48:32;124.25;;;48.88;;
63818;SDS011;49970;54.976;73.248;2023-02-15T15:51:04;139.88;;;56.22;;
63818;SDS011;49970;54.976;73.248;2023-02-15T15:53:38;198.13;;;77.40;;
63818;SDS011;49970;54.976;73.248;2023-02-15T15:56:29;192.52;;;80.65;;
63818;SDS011;49970;54.976;73.248;2023-02-15T15:59:12;188.70;;;78.53;;
63818;SDS011;49970;54.976;73.248;2023-02-15T16:01:44;181.63;;;70.05;;
63818;SDS011;49970;54.976;73.248;2023-02-15T16:04:25;180.25;;;67.07;;
63818;SDS011;49970;54.976;73.248;2023-02-15T16:13:04;177.90;;;63.55;;
63818;SDS011;49970;54.976;73.248;2023-02-15T16:15:45;160.50;;;61.58;;
63818;SDS011;49970;54.976;73.248;2023-02-15T16:18:18;164.93;;;64.43;;
63818;SDS011;49970;54.976;73.248;2023-02-15T16:20:55;163.35;;;65.03;;
63818;SDS011;49970;54.976;73.248;2023-02-15T16:31:27;135.48;;;50.83;;
63818;SDS011;49970;54.976;73.248;2023-02-15T16:34:07;119.65;;;50.70;;
63818;SDS011;49970;54.976;73.248;2023-02-15T16:36:41;136.93;;;56.47;;
63818;SDS011;49970;54.976;73.248;2023-02-15T16:39:09;134.85;;;54.13;;
63818;SDS011;49970;54.976;73.248;2023-02-15T16:41:53;139.27;;;56.85;;
63818;SDS011;49970;54.976;73.248;2023-02-15T16:44:20;136.98;;;57.88;;
63818;SDS011;49970;54.976;73.248;2023-02-15T16:46:53;117.20;;;49.53;;
63818;SDS011;49970;54.976;73.248;2023-02-15T16:49:21;123.88;;;51.03;;
63818;SDS011;49970;54.976;73.248;2023-02-15T16:51:56;130.98;;;50.03;;
63818;SDS011;49970;54.976;73.248;2023-02-15T16:54:31;124.47;;;47.80;;
63818;SDS011;49970;54.976;73.248;2023-02-15T16:56:59;128.38;;;53.97;;
63818;SDS011;49970;54.976;73.248;2023-02-15T16:59:38;133.10;;;52.72;;
63818;SDS011;49970;54.976;73.248;2023-02-15T17:02:19;136.38;;;56.38;;
63818;SDS011;49970;54.976;73.248;2023-02-15T17:05:11;164.95;;;63.80;;
63818;SDS011;49970;54.976;73.248;2023-02-15T17:08:03;149.90;;;66.00;;
63818;SDS011;49970;54.976;73.248;2023-02-15T17:10:33;160.32;;;64.43;;
63818;SDS011;49970;54.976;73.248;2023-02-15T17:13:11;144.27;;;58.00;;
63818;SDS011;49970;54.976;73.248;2023-02-15T17:15:40;137.30;;;56.72;;
63818;SDS011;49970;54.976;73.248;2023-02-15T17:18:30;118.82;;;49.28;;
63818;SDS011;49970;54.976;73.248;2023-02-15T17:21:08;123.80;;;50.05;;
63818;SDS011;49970;54.976;73.248;2023-02-15T17:23:41;124.82;;;47.67;;
63818;SDS011;49970;54.976;73.248;2023-02-15T17:26:32;104.60;;;50.58;;
63818;SDS011;49970;54.976;73.248;2023-02-15T17:29:05;117.15;;;47.35;;
63818;SDS011;49970;54.976;73.248;2023-02-15T17:31:59;118.38;;;47.80;;
63818;SDS011;49970;54.976;73.248;2023-02-15T17:42:50;114.07;;;46.40;;
63818;SDS011;49970;54.976;73.248;2023-02-15T17:45:17;110.88;;;44.28;;
63818;SDS011;49970;54.976;73.248;2023-02-15T17:47:44;115.30;;;47.45;;
63818;SDS011;49970;54.976;73.248;2023-02-15T17:50:24;124.15;;;50.97;;
63818;SDS011;49970;54.976;73.248;2023-02-15T17:52:53;134.63;;;53.08;;
63818;SDS011;49970;54.976;73.248;2023-02-15T17:55:31;130.77;;;50.67;;
63818;SDS011;49970;54.976;73.248;2023-02-15T17:58:00;127.63;;;52.92;;
63818;SDS011;49970;54.976;73.248;2023-02-15T18:00:31;129.20;;;52.55;;
63818;SDS011;49970;54.976;73.248;2023-02-15T18:03:22;125.10;;;48.92;;
63818;SDS011;49970;54.976;73.248;2023-02-15T18:06:18;121.47;;;48.53;;
63818;SDS011;49970;54.976;73.248;2023-02-15T18:09:02;117.75;;;47.00;;
63818;SDS011;49970;54.976;73.248;2023-02-15T18:11:47;107.05;;;46.17;;
63818;SDS011;49970;54.976;73.248;2023-02-15T18:14:15;121.20;;;49.20;;
63818;SDS011;49970;54.976;73.248;2023-02-15T18:16:42;114.28;;;45.20;;
63818;SDS011;49970;54.976;73.248;2023-02-15T18:19:17;121.97;;;49.45;;
63818;SDS011;49970;54.976;73.248;2023-02-15T18:21:46;116.63;;;45.55;;